createdAt,value
2018-06-29T00:00:01.257Z,17.30
2018-06-29T00:02:29.946Z,17.30
2018-06-29T00:04:58.770Z,17.30
2018-06-29T00:07:27.507Z,17.30
2018-06-29T00:09:56.369Z,17.30
2018-06-29T00:12:25.040Z,17.30
2018-06-29T00:14:53.788Z,17.30
2018-06-29T00:17:22.655Z,17.30
2018-06-29T00:19:51.323Z,17.30
2018-06-29T00:22:21.598Z,17.30
2018-06-29T00:24:50.390Z,17.30
2018-06-29T00:27:19.682Z,17.20
2018-06-29T00:29:48.677Z,17.30
2018-06-29T00:32:17.477Z,16.20
2018-06-29T00:34:46.179Z,17.40
2018-06-29T00:37:15.191Z,17.30
2018-06-29T00:39:43.844Z,17.40
2018-06-29T00:42:12.568Z,17.30
2018-06-29T00:44:41.264Z,17.30
2018-06-29T00:47:09.934Z,17.30
2018-06-29T00:49:38.537Z,17.20
2018-06-29T00:52:07.363Z,17.20
2018-06-29T00:54:37.832Z,17.20
2018-06-29T00:57:06.812Z,17.10
2018-06-29T00:59:37.928Z,17.10
2018-06-29T01:02:06.699Z,17.10
2018-06-29T01:04:35.413Z,17.10
2018-06-29T01:07:04.097Z,16.30
2018-06-29T01:09:32.851Z,17.10
2018-06-29T01:12:02.621Z,15.60
2018-06-29T01:14:31.358Z,17.10
2018-06-29T01:17:00.136Z,17.10
2018-06-29T01:19:28.899Z,17.10
2018-06-29T01:21:57.599Z,17.10
2018-06-29T01:24:26.317Z,17.00
2018-06-29T01:26:55.111Z,17.00
2018-06-29T01:29:23.789Z,15.20
2018-06-29T01:31:52.571Z,17.00
2018-06-29T01:34:22.077Z,17.10
2018-06-29T01:36:50.800Z,17.10
2018-06-29T01:39:19.510Z,17.20
2018-06-29T01:41:48.401Z,17.20
2018-06-29T01:44:19.231Z,17.20
2018-06-29T01:46:48.081Z,17.10
2018-06-29T01:49:16.851Z,17.20
2018-06-29T01:51:45.597Z,17.10
2018-06-29T01:54:14.352Z,17.10
2018-06-29T01:56:44.256Z,17.10
2018-06-29T01:59:13.066Z,17.10
2018-06-29T02:01:42.033Z,17.00
2018-06-29T02:04:12.691Z,17.10
2018-06-29T02:06:41.395Z,17.10
2018-06-29T02:09:10.711Z,16.10
2018-06-29T02:11:39.618Z,15.70
2018-06-29T02:14:08.499Z,17.00
2018-06-29T02:16:37.231Z,17.00
2018-06-29T02:19:06.066Z,16.90
2018-06-29T02:21:34.767Z,17.00
2018-06-29T02:24:03.529Z,17.00
2018-06-29T02:26:32.199Z,17.00
2018-06-29T02:29:00.919Z,17.00
2018-06-29T02:31:29.642Z,17.00
2018-06-29T02:33:58.482Z,17.00
2018-06-29T02:36:27.224Z,15.40
2018-06-29T02:38:56.012Z,17.00
2018-06-29T02:41:24.710Z,16.90
2018-06-29T02:43:53.701Z,16.90
2018-06-29T02:46:22.813Z,16.90
2018-06-29T02:48:51.667Z,16.90
2018-06-29T02:51:20.379Z,16.90
2018-06-29T02:53:49.252Z,17.00
2018-06-29T02:56:18.062Z,17.00
2018-06-29T02:58:46.898Z,17.00
2018-06-29T03:01:15.838Z,17.00
2018-06-29T03:03:44.560Z,17.00
2018-06-29T03:06:13.422Z,17.00
2018-06-29T03:08:42.294Z,16.90
2018-06-29T03:11:11.015Z,16.90
2018-06-29T03:13:39.824Z,16.80
2018-06-29T03:16:08.722Z,16.80
2018-06-29T03:18:39.452Z,16.80
2018-06-29T03:21:08.089Z,16.80
2018-06-29T03:23:38.038Z,16.80
2018-06-29T03:26:07.188Z,16.80
2018-06-29T03:28:36.066Z,16.80
2018-06-29T03:31:05.008Z,16.80
2018-06-29T03:33:33.679Z,16.90
2018-06-29T03:36:02.344Z,16.90
2018-06-29T03:38:31.000Z,16.90
2018-06-29T03:40:59.799Z,16.90
2018-06-29T03:43:28.499Z,16.90
2018-06-29T03:45:57.275Z,16.90
2018-06-29T03:48:25.963Z,16.90
2018-06-29T03:50:54.815Z,16.90
2018-06-29T03:53:23.624Z,16.90
2018-06-29T03:55:52.278Z,16.90
2018-06-29T03:58:21.159Z,16.90
2018-06-29T04:00:50.060Z,16.90
2018-06-29T04:03:18.843Z,16.90
2018-06-29T04:05:48.951Z,17.00
2018-06-29T04:08:17.641Z,17.00
2018-06-29T04:10:46.440Z,17.10
2018-06-29T04:13:15.235Z,17.00
2018-06-29T04:15:44.356Z,17.00
2018-06-29T04:18:13.046Z,17.00
2018-06-29T04:20:41.729Z,17.00
2018-06-29T04:23:10.538Z,17.00
2018-06-29T04:25:40.751Z,17.10
2018-06-29T04:28:09.685Z,17.00
2018-06-29T04:30:38.644Z,17.10
2018-06-29T04:33:07.406Z,17.10
2018-06-29T04:35:36.363Z,17.20
2018-06-29T04:38:05.620Z,17.20
2018-06-29T04:40:34.387Z,17.10
2018-06-29T04:43:03.584Z,17.10
2018-06-29T04:45:32.932Z,17.10
2018-06-29T04:48:01.524Z,17.10
2018-06-29T04:50:31.786Z,19.00
2018-06-29T04:53:00.525Z,17.10
2018-06-29T04:55:29.227Z,17.00
2018-06-29T04:57:58.493Z,17.10
2018-06-29T05:00:27.310Z,17.10
2018-06-29T05:02:56.030Z,17.20
2018-06-29T05:05:25.471Z,17.20
2018-06-29T05:07:54.368Z,15.10
2018-06-29T05:10:23.071Z,17.10
2018-06-29T05:12:51.920Z,17.20
2018-06-29T05:15:20.627Z,17.20
2018-06-29T05:17:49.414Z,17.20
2018-06-29T05:20:27.707Z,17.20
2018-06-29T05:23:05.805Z,17.20
2018-06-29T05:25:34.911Z,17.30
2018-06-29T05:28:03.680Z,17.70
2018-06-29T05:30:32.396Z,17.30
2018-06-29T05:33:01.170Z,17.40
2018-06-29T05:35:29.974Z,15.50
2018-06-29T05:37:58.898Z,17.40
2018-06-29T05:40:32.677Z,17.40
2018-06-29T05:43:09.965Z,17.40
2018-06-29T05:45:38.883Z,17.50
2018-06-29T05:48:07.547Z,17.50
2018-06-29T05:50:36.547Z,17.50
2018-06-29T05:53:05.378Z,17.40
2018-06-29T05:55:34.255Z,17.50
2018-06-29T05:58:02.930Z,17.50
2018-06-29T06:00:31.824Z,17.50
2018-06-29T06:03:00.813Z,17.40
2018-06-29T06:05:29.787Z,17.40
2018-06-29T06:07:58.603Z,15.90
2018-06-29T06:10:27.372Z,17.30
2018-06-29T06:12:57.085Z,17.40
2018-06-29T06:15:26.385Z,17.40
2018-06-29T06:17:55.117Z,17.40
2018-06-29T06:20:23.828Z,17.40
2018-06-29T06:22:52.648Z,17.50
2018-06-29T06:25:21.370Z,17.50
2018-06-29T06:27:50.053Z,17.60
2018-06-29T06:30:18.949Z,17.60
2018-06-29T06:32:47.662Z,17.60
2018-06-29T06:35:16.549Z,17.70
2018-06-29T06:37:52.848Z,17.70
2018-06-29T06:40:29.320Z,17.80
2018-06-29T06:42:58.753Z,17.80
2018-06-29T06:45:27.637Z,17.90
2018-06-29T06:47:56.276Z,18.00
2018-06-29T06:50:25.035Z,18.20
2018-06-29T06:52:53.952Z,18.30
2018-06-29T06:55:22.785Z,18.40
2018-06-29T06:57:51.452Z,18.60
2018-06-29T07:00:20.292Z,18.70
2018-06-29T07:02:49.101Z,18.60
2018-06-29T07:05:18.548Z,18.50
2018-06-29T07:07:47.849Z,18.50
2018-06-29T07:10:19.346Z,18.50
2018-06-29T07:12:48.239Z,18.80
2018-06-29T07:15:16.967Z,19.00
2018-06-29T07:17:45.799Z,19.10
2018-06-29T07:20:14.496Z,19.20
2018-06-29T07:23:23.942Z,19.20
2018-06-29T07:29:08.122Z,19.10
2018-06-29T07:31:37.018Z,19.00
2018-06-29T07:34:05.777Z,18.90
2018-06-29T07:36:34.501Z,19.00
2018-06-29T07:39:04.489Z,19.10
2018-06-29T07:41:34.238Z,19.20
2018-06-29T07:44:08.382Z,19.10
2018-06-29T07:46:38.625Z,19.10
2018-06-29T07:49:07.814Z,19.20
2018-06-29T07:54:05.235Z,19.10
2018-06-29T07:56:34.133Z,19.00
2018-06-29T07:59:03.053Z,19.20
2018-06-29T08:04:01.748Z,19.30
2018-06-29T08:06:31.117Z,19.30
2018-06-29T08:08:59.867Z,19.40
2018-06-29T08:11:28.673Z,19.50
2018-06-29T08:13:57.475Z,19.50
2018-06-29T08:16:27.707Z,19.30
2018-06-29T08:19:11.540Z,19.30
2018-06-29T08:22:04.973Z,19.40
2018-06-29T08:24:34.662Z,19.40
2018-06-29T08:27:03.485Z,19.50
2018-06-29T08:29:34.964Z,19.50
2018-06-29T08:32:04.228Z,19.80
2018-06-29T08:34:33.080Z,19.90
2018-06-29T08:37:05.401Z,20.10
2018-06-29T08:39:34.533Z,20.30
2018-06-29T08:42:03.533Z,20.20
2018-06-29T08:44:33.585Z,19.60
2018-06-29T08:47:02.437Z,20.20
2018-06-29T08:49:31.270Z,20.20
2018-06-29T08:52:07.902Z,20.30
2018-06-29T08:54:43.478Z,20.40
2018-06-29T08:57:34.628Z,20.50
2018-06-29T09:00:04.771Z,20.50
2018-06-29T09:02:33.631Z,20.30
2018-06-29T09:05:02.407Z,20.20
2018-06-29T09:07:31.317Z,20.10
2018-06-29T09:10:16.273Z,20.10
2018-06-29T09:12:55.363Z,20.00
2018-06-29T09:15:25.074Z,20.00
2018-06-29T09:17:53.936Z,19.90
2018-06-29T09:20:23.007Z,19.70
2018-06-29T09:22:51.859Z,19.60
2018-06-29T09:25:21.062Z,19.50
2018-06-29T09:27:49.883Z,19.50
2018-06-29T09:30:19.923Z,19.50
2018-06-29T09:32:48.734Z,19.40
2018-06-29T09:35:17.605Z,19.50
2018-06-29T09:37:46.447Z,19.50
2018-06-29T09:40:16.552Z,19.60
2018-06-29T09:42:51.959Z,19.70
2018-06-29T09:47:52.774Z,19.80
2018-06-29T09:50:21.944Z,19.80
2018-06-29T09:52:50.949Z,19.80
2018-06-29T09:55:19.925Z,19.80
2018-06-29T09:57:49.036Z,19.60
2018-06-29T10:00:22.122Z,19.90
2018-06-29T10:02:51.108Z,19.90
2018-06-29T10:05:19.949Z,20.00
2018-06-29T10:07:48.944Z,20.00
2018-06-29T10:10:17.750Z,20.10
2018-06-29T10:12:47.146Z,20.20
2018-06-29T10:15:16.755Z,21.20
2018-06-29T10:17:45.683Z,20.50
2018-06-29T10:20:14.592Z,20.60
2018-06-29T10:22:43.505Z,20.60
2018-06-29T10:25:12.931Z,20.90
2018-06-29T10:27:43.731Z,21.10
2018-06-29T10:30:12.460Z,21.50
2018-06-29T10:32:41.483Z,21.90
2018-06-29T10:35:10.261Z,22.10
2018-06-29T10:37:39.077Z,22.00
2018-06-29T10:40:08.396Z,21.90
2018-06-29T10:42:37.347Z,22.00
2018-06-29T10:45:06.270Z,22.10
2018-06-29T10:47:35.060Z,22.30
2018-06-29T10:50:03.981Z,22.10
2018-06-29T10:55:01.283Z,22.90
2018-06-29T10:57:30.176Z,23.50
2018-06-29T10:59:58.972Z,23.70
2018-06-29T11:02:28.152Z,23.90
2018-06-29T11:04:57.109Z,24.30
2018-06-29T11:07:25.927Z,24.80
2018-06-29T11:12:23.523Z,24.80
2018-06-29T11:14:52.243Z,25.10
2018-06-29T11:19:49.728Z,24.60
2018-06-29T11:22:19.171Z,25.00
2018-06-29T11:24:48.150Z,25.00
2018-06-29T11:27:16.898Z,25.70
2018-06-29T11:29:45.955Z,26.40
2018-06-29T11:33:44.131Z,26.70
2018-06-29T11:36:12.930Z,26.90
2018-06-29T11:38:41.754Z,26.60
2018-06-29T11:41:11.522Z,26.00
2018-06-29T11:43:40.509Z,25.10
2018-06-29T11:46:09.389Z,24.50
2018-06-29T11:48:38.424Z,23.10
2018-06-29T11:53:38.968Z,24.30
2018-06-29T11:56:09.365Z,23.90
2018-06-29T11:58:38.461Z,24.40
2018-06-29T12:01:07.719Z,24.60
2018-06-29T12:03:36.642Z,25.00
2018-06-29T12:06:05.420Z,25.70
2018-06-29T12:08:39.560Z,25.60
2018-06-29T12:11:09.155Z,25.30
2018-06-29T12:16:07.004Z,24.50
2018-06-29T12:18:35.687Z,24.80
2018-06-29T12:23:33.012Z,25.30
2018-06-29T12:26:03.800Z,24.70
2018-06-29T12:28:32.630Z,24.00
2018-06-29T12:31:01.411Z,24.20
2018-06-29T12:36:01.117Z,25.30
2018-06-29T12:38:30.221Z,25.00
2018-06-29T12:40:59.060Z,24.30
2018-06-29T12:43:28.058Z,24.10
2018-06-29T12:46:10.452Z,24.00
2018-06-29T12:48:55.316Z,23.60
2018-06-29T12:51:25.379Z,23.70
2018-06-29T12:53:54.177Z,23.80
2018-06-29T12:56:23.346Z,24.30
2018-06-29T12:58:52.247Z,24.70
2018-06-29T13:01:21.184Z,25.70
2018-06-29T13:03:50.098Z,25.20
2018-06-29T13:06:18.846Z,24.40
2018-06-29T13:08:47.985Z,24.00
2018-06-29T13:11:19.081Z,22.80
2018-06-29T13:13:47.966Z,23.60
2018-06-29T13:16:20.164Z,23.40
2018-06-29T13:18:49.066Z,23.60
2018-06-29T13:21:18.801Z,23.70
2018-06-29T13:23:49.476Z,23.90
2018-06-29T13:26:18.235Z,24.00
2018-06-29T13:28:47.124Z,24.10
2018-06-29T13:31:15.879Z,24.20
2018-06-29T13:33:44.590Z,24.30
2018-06-29T13:36:13.256Z,23.30
2018-06-29T13:38:42.283Z,24.40
2018-06-29T13:41:11.084Z,24.30
2018-06-29T13:43:41.836Z,24.10
2018-06-29T13:46:13.131Z,24.00
2018-06-29T13:48:41.883Z,24.10
2018-06-29T13:51:10.902Z,24.00
2018-06-29T13:53:39.793Z,23.80
2018-06-29T13:56:11.498Z,23.70
2018-06-29T13:58:40.390Z,23.90
2018-06-29T14:01:09.230Z,23.50
2018-06-29T14:03:41.460Z,24.70
2018-06-29T14:06:10.458Z,24.60
2018-06-29T14:08:39.500Z,24.40
2018-06-29T14:11:08.324Z,24.20
2018-06-29T14:13:37.189Z,24.20
2018-06-29T14:16:06.005Z,24.30
2018-06-29T14:18:34.880Z,24.20
2018-06-29T14:21:03.648Z,24.10
2018-06-29T14:23:32.303Z,24.60
2018-06-29T14:26:04.449Z,24.80
2018-06-29T14:28:46.225Z,23.40
2018-06-29T14:31:15.440Z,24.40
2018-06-29T14:33:49.555Z,24.40
2018-06-29T14:36:26.431Z,24.80
2018-06-29T14:39:08.056Z,25.80
2018-06-29T14:41:48.636Z,26.20
2018-06-29T14:44:23.942Z,26.80
2018-06-29T14:46:52.822Z,27.90
2018-06-29T14:49:25.311Z,28.00
2018-06-29T14:52:00.465Z,26.40
2018-06-29T14:54:33.626Z,25.60
2018-06-29T14:57:05.114Z,24.80
2018-06-29T14:59:34.331Z,24.30
2018-06-29T15:02:04.068Z,24.00
2018-06-29T15:04:34.686Z,23.60
2018-06-29T15:07:03.446Z,23.20
2018-06-29T15:09:33.662Z,22.80
2018-06-29T15:12:02.442Z,22.90
2018-06-29T15:14:31.967Z,22.40
2018-06-29T15:17:00.965Z,22.30
2018-06-29T15:19:29.807Z,22.20
2018-06-29T15:22:01.033Z,22.20
2018-06-29T15:24:29.886Z,22.10
2018-06-29T15:26:58.632Z,22.00
2018-06-29T15:29:27.318Z,20.70
2018-06-29T15:31:56.200Z,21.30
2018-06-29T15:34:27.574Z,21.70
2018-06-29T15:36:56.402Z,21.70
2018-06-29T15:39:25.213Z,21.70
2018-06-29T15:41:53.887Z,21.80
2018-06-29T15:44:22.888Z,21.80
2018-06-29T15:46:51.805Z,22.00
2018-06-29T15:49:20.645Z,23.30
2018-06-29T15:51:49.666Z,21.60
2018-06-29T15:56:02.872Z,21.90
2018-06-29T15:58:31.749Z,21.90
2018-06-29T16:01:00.582Z,21.80
2018-06-29T16:03:29.404Z,21.80
2018-06-29T16:05:59.062Z,21.90
2018-06-29T16:11:34.024Z,21.80
2018-06-29T16:14:04.914Z,21.80
2018-06-29T16:16:35.398Z,21.90
2018-06-29T16:19:04.186Z,21.90
2018-06-29T16:21:32.936Z,22.10
2018-06-29T16:24:01.766Z,22.10
2018-06-29T16:26:30.579Z,22.10
2018-06-29T16:28:59.707Z,22.20
2018-06-29T16:31:28.467Z,22.20
2018-06-29T16:33:57.279Z,22.20
2018-06-29T16:36:26.180Z,22.20
2018-06-29T16:41:23.314Z,24.00
2018-06-29T16:43:52.310Z,22.50
2018-06-29T16:46:21.007Z,22.50
2018-06-29T16:48:51.439Z,22.30
2018-06-29T16:53:48.708Z,21.70
2018-06-29T16:56:17.557Z,22.20
2018-06-29T16:58:46.365Z,22.10
2018-06-29T17:01:16.548Z,22.00
2018-06-29T17:03:45.323Z,21.90
2018-06-29T17:06:14.054Z,21.90
2018-06-29T17:08:43.020Z,21.90
2018-06-29T17:11:13.766Z,22.00
2018-06-29T17:13:42.526Z,22.00
2018-06-29T17:16:11.737Z,21.90
2018-06-29T17:21:09.010Z,20.50
2018-06-29T17:23:37.831Z,22.20
2018-06-29T17:26:06.665Z,22.00
2018-06-29T17:28:41.965Z,21.90
2018-06-29T17:31:12.333Z,21.80
2018-06-29T17:33:46.099Z,21.70
2018-06-29T17:36:17.063Z,21.70
2018-06-29T17:38:45.832Z,21.70
2018-06-29T17:41:15.023Z,21.60
2018-06-29T17:43:43.886Z,21.70
2018-06-29T17:46:15.065Z,21.70
2018-06-29T17:48:43.895Z,21.70
2018-06-29T17:51:13.666Z,21.70
2018-06-29T17:53:42.548Z,21.80
2018-06-29T17:56:13.338Z,21.80
2018-06-29T17:58:42.288Z,21.80
2018-06-29T18:01:11.888Z,21.70
2018-06-29T18:03:40.548Z,21.70
2018-06-29T18:06:09.268Z,21.70
2018-06-29T18:08:38.153Z,21.70
2018-06-29T18:11:06.859Z,21.60
2018-06-29T18:13:35.820Z,21.60
2018-06-29T18:16:06.395Z,21.60
2018-06-29T18:18:35.119Z,21.50
2018-06-29T18:21:03.988Z,21.30
2018-06-29T18:23:32.966Z,21.30
2018-06-29T18:26:04.152Z,21.30
2018-06-29T18:28:32.940Z,21.30
2018-06-29T18:31:01.779Z,21.30
2018-06-29T18:33:42.646Z,21.30
2018-06-29T18:36:43.645Z,21.20
2018-06-29T18:39:14.667Z,21.20
2018-06-29T18:41:44.927Z,21.20
2018-06-29T18:44:17.350Z,21.00
2018-06-29T18:46:46.076Z,21.00
2018-06-29T18:49:14.763Z,21.00
2018-06-29T18:51:43.477Z,21.00
2018-06-29T18:54:13.530Z,21.00
2018-06-29T18:56:42.710Z,20.90
2018-06-29T18:59:11.330Z,21.00
2018-06-29T19:01:40.076Z,21.00
2018-06-29T19:04:08.957Z,21.00
2018-06-29T19:06:37.688Z,21.00
2018-06-29T19:09:08.848Z,20.90
2018-06-29T19:11:37.915Z,20.90
2018-06-29T19:14:07.140Z,20.90
2018-06-29T19:16:36.072Z,20.90
2018-06-29T19:19:05.063Z,20.80
2018-06-29T19:21:33.703Z,20.80
2018-06-29T19:24:03.059Z,20.70
2018-06-29T19:26:31.812Z,20.70
2018-06-29T19:29:00.621Z,20.60
2018-06-29T19:31:29.382Z,20.60
2018-06-29T19:33:58.136Z,20.60
2018-06-29T19:36:26.920Z,20.60
2018-06-29T19:38:55.855Z,20.50
2018-06-29T19:41:24.658Z,20.50
2018-06-29T19:43:53.773Z,20.50
2018-06-29T19:46:22.524Z,20.40
2018-06-29T19:48:51.337Z,20.40
2018-06-29T19:51:20.091Z,20.40
2018-06-29T19:53:49.041Z,20.30
2018-06-29T19:56:17.964Z,20.30
2018-06-29T19:58:46.554Z,20.40
2018-06-29T20:01:15.330Z,20.30
2018-06-29T20:03:44.465Z,20.30
2018-06-29T20:06:13.162Z,20.40
2018-06-29T20:08:41.976Z,20.30
2018-06-29T20:11:10.930Z,20.30
2018-06-29T20:13:39.781Z,20.30
2018-06-29T20:16:08.513Z,20.30
2018-06-29T20:18:37.255Z,20.30
2018-06-29T20:21:06.118Z,20.30
2018-06-29T20:23:35.127Z,20.30
2018-06-29T20:26:03.983Z,20.30
2018-06-29T20:28:32.778Z,20.30
2018-06-29T20:31:02.099Z,20.30
2018-06-29T20:33:30.924Z,20.20
2018-06-29T20:35:59.614Z,20.20
2018-06-29T20:38:28.442Z,20.20
2018-06-29T20:40:59.301Z,20.10
2018-06-29T20:43:28.129Z,20.20
2018-06-29T20:45:56.975Z,20.20
2018-06-29T20:48:25.743Z,20.30
2018-06-29T20:50:54.555Z,21.30
2018-06-29T20:53:23.266Z,20.40
2018-06-29T20:55:52.001Z,19.90
2018-06-29T20:58:20.804Z,20.20
2018-06-29T21:00:49.628Z,20.30
2018-06-29T21:03:18.373Z,20.30
2018-06-29T21:05:53.145Z,20.30
2018-06-29T21:08:30.098Z,21.30
2018-06-29T21:10:58.872Z,20.30
2018-06-29T21:13:27.702Z,20.30
2018-06-29T21:15:56.399Z,20.30
2018-06-29T21:18:25.170Z,20.40
2018-06-29T21:20:54.012Z,20.40
2018-06-29T21:23:22.675Z,20.40
2018-06-29T21:25:51.394Z,20.30
2018-06-29T21:28:20.166Z,20.30
2018-06-29T21:30:48.887Z,20.30
2018-06-29T21:33:17.847Z,20.50
2018-06-29T21:35:46.631Z,19.20
2018-06-29T21:38:18.183Z,20.30
2018-06-29T21:40:51.189Z,20.30
2018-06-29T21:43:20.360Z,20.30
2018-06-29T21:45:49.181Z,20.30
2018-06-29T21:48:18.757Z,20.30
2018-06-29T21:50:47.471Z,19.20
2018-06-29T21:53:16.168Z,20.30
2018-06-29T21:55:52.164Z,20.20
2018-06-29T21:58:21.127Z,20.10
2018-06-29T22:00:50.016Z,20.20
2018-06-29T22:03:18.804Z,20.10
2018-06-29T22:05:47.674Z,20.10
2018-06-29T22:08:16.537Z,20.00
2018-06-29T22:10:45.274Z,20.00
2018-06-29T22:13:13.963Z,19.90
2018-06-29T22:15:42.656Z,19.90
2018-06-29T22:18:11.371Z,20.00
2018-06-29T22:20:40.223Z,19.90
2018-06-29T22:23:08.980Z,19.90
2018-06-29T22:25:37.669Z,19.40
2018-06-29T22:28:06.693Z,19.90
2018-06-29T22:30:35.581Z,19.90
2018-06-29T22:33:04.291Z,19.90
2018-06-29T22:35:32.979Z,19.90
2018-06-29T22:38:01.714Z,19.90
2018-06-29T22:40:31.028Z,20.00
2018-06-29T22:43:01.736Z,19.90
2018-06-29T22:45:31.302Z,19.90
2018-06-29T22:47:59.994Z,19.90
2018-06-29T22:50:28.678Z,20.00
2018-06-29T22:52:57.453Z,20.00
2018-06-29T22:55:26.250Z,20.00
2018-06-29T22:57:54.927Z,20.00
2018-06-29T23:00:25.407Z,20.00
2018-06-29T23:02:59.558Z,19.90
2018-06-29T23:05:28.389Z,19.90
2018-06-29T23:07:57.084Z,19.90
2018-06-29T23:10:25.804Z,19.90
2018-06-29T23:12:54.754Z,19.80
2018-06-29T23:15:23.687Z,19.90
2018-06-29T23:17:52.651Z,19.90
2018-06-29T23:20:21.306Z,19.80
2018-06-29T23:22:52.903Z,19.80
2018-06-29T23:25:21.821Z,19.70
2018-06-29T23:27:50.486Z,19.70
2018-06-29T23:30:19.435Z,19.70
2018-06-29T23:32:48.086Z,19.70
2018-06-29T23:35:16.816Z,19.50
2018-06-29T23:37:45.583Z,19.50
2018-06-29T23:40:14.294Z,19.50
2018-06-29T23:42:43.032Z,19.60
2018-06-29T23:45:11.878Z,19.50
2018-06-29T23:47:40.571Z,19.40
2018-06-29T23:50:09.840Z,19.40
2018-06-29T23:52:41.006Z,19.40
2018-06-29T23:55:09.852Z,19.40
2018-06-29T23:57:38.993Z,19.40
